sensor_id;sensor_type;location;lat;lon;timestamp;P1;durP1;ratioP1;P2;durP2;ratioP2
7843;SDS011;3967;48.702;9.326;2024-02-26T00:00:38;1.73;;;1.53;;
7843;SDS011;3967;48.702;9.326;2024-02-26T00:03:05;1.40;;;1.30;;
7843;SDS011;3967;48.702;9.326;2024-02-26T00:05:32;1.60;;;1.13;;
7843;SDS011;3967;48.702;9.326;2024-02-26T00:07:58;1.50;;;1.40;;
7843;SDS011;3967;48.702;9.326;2024-02-26T00:10:29;1.70;;;1.33;;
7843;SDS011;3967;48.702;9.326;2024-02-26T00:12:56;2.90;;;2.00;;
7843;SDS011;3967;48.702;9.326;2024-02-26T00:15:23;2.90;;;1.40;;
7843;SDS011;3967;48.702;9.326;2024-02-26T00:17:51;1.07;;;0.97;;
7843;SDS011;3967;48.702;9.326;2024-02-26T00:20:18;1.20;;;1.10;;
7843;SDS011;3967;48.702;9.326;2024-02-26T00:22:45;1.07;;;0.93;;
7843;SDS011;3967;48.702;9.326;2024-02-26T00:25:12;1.77;;;1.30;;
7843;SDS011;3967;48.702;9.326;2024-02-26T00:27:39;1.13;;;1.03;;
7843;SDS011;3967;48.702;9.326;2024-02-26T00:30:08;1.17;;;1.00;;
7843;SDS011;3967;48.702;9.326;2024-02-26T00:32:35;1.30;;;1.17;;
7843;SDS011;3967;48.702;9.326;2024-02-26T00:35:02;1.30;;;0.90;;
7843;SDS011;3967;48.702;9.326;2024-02-26T00:37:29;2.00;;;1.03;;
7843;SDS011;3967;48.702;9.326;2024-02-26T00:39:56;1.80;;;1.10;;
7843;SDS011;3967;48.702;9.326;2024-02-26T00:42:22;1.40;;;1.30;;
7843;SDS011;3967;48.702;9.326;2024-02-26T00:44:49;1.23;;;1.00;;
7843;SDS011;3967;48.702;9.326;2024-02-26T00:47:16;1.73;;;1.20;;
7843;SDS011;3967;48.702;9.326;2024-02-26T00:49:43;2.40;;;1.30;;
7843;SDS011;3967;48.702;9.326;2024-02-26T00:52:10;1.40;;;1.30;;
7843;SDS011;3967;48.702;9.326;2024-02-26T00:54:37;2.50;;;1.03;;
7843;SDS011;3967;48.702;9.326;2024-02-26T00:57:03;1.13;;;1.00;;
7843;SDS011;3967;48.702;9.326;2024-02-26T00:59:30;1.40;;;1.30;;
7843;SDS011;3967;48.702;9.326;2024-02-26T01:01:57;1.47;;;1.10;;
7843;SDS011;3967;48.702;9.326;2024-02-26T01:04:26;1.10;;;1.00;;
7843;SDS011;3967;48.702;9.326;2024-02-26T01:06:54;1.10;;;1.00;;
7843;SDS011;3967;48.702;9.326;2024-02-26T01:09:21;1.20;;;1.10;;
7843;SDS011;3967;48.702;9.326;2024-02-26T01:11:47;1.30;;;1.00;;
7843;SDS011;3967;48.702;9.326;2024-02-26T01:14:14;1.50;;;0.93;;
7843;SDS011;3967;48.702;9.326;2024-02-26T01:16:41;1.53;;;1.10;;
7843;SDS011;3967;48.702;9.326;2024-02-26T01:19:08;1.20;;;1.10;;
7843;SDS011;3967;48.702;9.326;2024-02-26T01:21:35;1.80;;;1.10;;
7843;SDS011;3967;48.702;9.326;2024-02-26T01:24:02;1.20;;;1.10;;
7843;SDS011;3967;48.702;9.326;2024-02-26T01:26:28;1.30;;;1.20;;
7843;SDS011;3967;48.702;9.326;2024-02-26T01:28:55;0.90;;;0.90;;
7843;SDS011;3967;48.702;9.326;2024-02-26T01:31:22;3.13;;;1.13;;
7843;SDS011;3967;48.702;9.326;2024-02-26T01:33:49;1.27;;;1.17;;
7843;SDS011;3967;48.702;9.326;2024-02-26T01:36:16;1.10;;;1.00;;
7843;SDS011;3967;48.702;9.326;2024-02-26T01:38:42;1.40;;;1.30;;
7843;SDS011;3967;48.702;9.326;2024-02-26T01:41:09;1.60;;;1.10;;
7843;SDS011;3967;48.702;9.326;2024-02-26T01:43:36;1.30;;;1.20;;
7843;SDS011;3967;48.702;9.326;2024-02-26T01:46:03;1.53;;;1.30;;
7843;SDS011;3967;48.702;9.326;2024-02-26T01:48:30;1.90;;;1.30;;
7843;SDS011;3967;48.702;9.326;2024-02-26T01:50:58;1.40;;;1.27;;
7843;SDS011;3967;48.702;9.326;2024-02-26T01:53:24;1.33;;;1.17;;
7843;SDS011;3967;48.702;9.326;2024-02-26T01:55:51;1.67;;;1.50;;
7843;SDS011;3967;48.702;9.326;2024-02-26T01:58:18;1.60;;;1.50;;
7843;SDS011;3967;48.702;9.326;2024-02-26T02:00:45;2.40;;;1.50;;
7843;SDS011;3967;48.702;9.326;2024-02-26T02:03:12;1.47;;;1.30;;
7843;SDS011;3967;48.702;9.326;2024-02-26T02:05:39;1.03;;;0.93;;
7843;SDS011;3967;48.702;9.326;2024-02-26T02:08:10;1.40;;;1.30;;
7843;SDS011;3967;48.702;9.326;2024-02-26T02:10:43;1.67;;;1.50;;
7843;SDS011;3967;48.702;9.326;2024-02-26T02:13:10;1.50;;;1.40;;
7843;SDS011;3967;48.702;9.326;2024-02-26T02:15:36;4.43;;;1.50;;
7843;SDS011;3967;48.702;9.326;2024-02-26T02:18:03;2.40;;;1.60;;
7843;SDS011;3967;48.702;9.326;2024-02-26T02:20:33;1.40;;;1.30;;
7843;SDS011;3967;48.702;9.326;2024-02-26T02:23:01;1.23;;;1.13;;
7843;SDS011;3967;48.702;9.326;2024-02-26T02:25:28;2.60;;;1.40;;
7843;SDS011;3967;48.702;9.326;2024-02-26T02:27:55;2.60;;;1.53;;
7843;SDS011;3967;48.702;9.326;2024-02-26T02:30:24;1.47;;;1.30;;
7843;SDS011;3967;48.702;9.326;2024-02-26T02:32:54;2.50;;;1.83;;
7843;SDS011;3967;48.702;9.326;2024-02-26T02:35:23;1.60;;;1.50;;
7843;SDS011;3967;48.702;9.326;2024-02-26T02:37:51;2.13;;;1.53;;
7843;SDS011;3967;48.702;9.326;2024-02-26T02:40:18;2.10;;;1.47;;
7843;SDS011;3967;48.702;9.326;2024-02-26T02:42:45;1.77;;;1.23;;
7843;SDS011;3967;48.702;9.326;2024-02-26T02:45:12;1.40;;;1.30;;
7843;SDS011;3967;48.702;9.326;2024-02-26T02:47:39;1.77;;;1.47;;
7843;SDS011;3967;48.702;9.326;2024-02-26T02:50:06;1.40;;;1.23;;
7843;SDS011;3967;48.702;9.326;2024-02-26T02:52:33;1.33;;;1.23;;
7843;SDS011;3967;48.702;9.326;2024-02-26T02:54:59;1.10;;;1.00;;
7843;SDS011;3967;48.702;9.326;2024-02-26T02:57:26;2.87;;;1.40;;
7843;SDS011;3967;48.702;9.326;2024-02-26T02:59:53;3.07;;;1.40;;
7843;SDS011;3967;48.702;9.326;2024-02-26T03:02:20;5.37;;;1.90;;
7843;SDS011;3967;48.702;9.326;2024-02-26T03:04:46;2.23;;;1.50;;
7843;SDS011;3967;48.702;9.326;2024-02-26T03:07:13;1.73;;;1.53;;
7843;SDS011;3967;48.702;9.326;2024-02-26T03:09:40;3.07;;;2.00;;
7843;SDS011;3967;48.702;9.326;2024-02-26T03:12:07;1.47;;;1.30;;
7843;SDS011;3967;48.702;9.326;2024-02-26T03:14:34;1.50;;;1.33;;
7843;SDS011;3967;48.702;9.326;2024-02-26T03:17:01;2.07;;;1.63;;
7843;SDS011;3967;48.702;9.326;2024-02-26T03:19:28;1.30;;;1.20;;
7843;SDS011;3967;48.702;9.326;2024-02-26T03:21:55;1.40;;;1.30;;
7843;SDS011;3967;48.702;9.326;2024-02-26T03:24:22;1.50;;;1.40;;
7843;SDS011;3967;48.702;9.326;2024-02-26T03:26:48;1.40;;;1.30;;
7843;SDS011;3967;48.702;9.326;2024-02-26T03:29:15;3.33;;;1.47;;
7843;SDS011;3967;48.702;9.326;2024-02-26T03:31:42;1.80;;;1.70;;
7843;SDS011;3967;48.702;9.326;2024-02-26T03:34:09;2.57;;;1.30;;
7843;SDS011;3967;48.702;9.326;2024-02-26T03:36:38;2.43;;;1.70;;
7843;SDS011;3967;48.702;9.326;2024-02-26T03:39:04;2.43;;;1.27;;
7843;SDS011;3967;48.702;9.326;2024-02-26T03:41:34;2.73;;;1.57;;
7843;SDS011;3967;48.702;9.326;2024-02-26T03:44:01;1.57;;;1.40;;
7843;SDS011;3967;48.702;9.326;2024-02-26T03:46:28;2.23;;;1.47;;
7843;SDS011;3967;48.702;9.326;2024-02-26T03:48:55;2.07;;;1.40;;
7843;SDS011;3967;48.702;9.326;2024-02-26T03:51:22;2.27;;;1.33;;
7843;SDS011;3967;48.702;9.326;2024-02-26T03:53:49;2.50;;;1.53;;
7843;SDS011;3967;48.702;9.326;2024-02-26T03:56:16;1.33;;;1.23;;
7843;SDS011;3967;48.702;9.326;2024-02-26T03:58:42;1.97;;;1.30;;
7843;SDS011;3967;48.702;9.326;2024-02-26T04:01:09;0.97;;;0.97;;
7843;SDS011;3967;48.702;9.326;2024-02-26T04:03:36;1.90;;;1.10;;
7843;SDS011;3967;48.702;9.326;2024-02-26T04:06:03;1.23;;;1.10;;
7843;SDS011;3967;48.702;9.326;2024-02-26T04:08:30;0.97;;;0.80;;
7843;SDS011;3967;48.702;9.326;2024-02-26T04:10:57;1.10;;;1.00;;
7843;SDS011;3967;48.702;9.326;2024-02-26T04:13:24;1.07;;;0.97;;
7843;SDS011;3967;48.702;9.326;2024-02-26T04:15:51;1.33;;;1.10;;
7843;SDS011;3967;48.702;9.326;2024-02-26T04:18:18;2.07;;;1.10;;
7843;SDS011;3967;48.702;9.326;2024-02-26T04:20:45;1.20;;;1.10;;
7843;SDS011;3967;48.702;9.326;2024-02-26T04:23:11;1.77;;;1.43;;
7843;SDS011;3967;48.702;9.326;2024-02-26T04:25:38;1.03;;;0.93;;
7843;SDS011;3967;48.702;9.326;2024-02-26T04:28:05;1.37;;;1.27;;
7843;SDS011;3967;48.702;9.326;2024-02-26T04:30:31;1.13;;;1.03;;
7843;SDS011;3967;48.702;9.326;2024-02-26T04:32:58;1.60;;;1.40;;
7843;SDS011;3967;48.702;9.326;2024-02-26T04:35:25;1.73;;;1.63;;
7843;SDS011;3967;48.702;9.326;2024-02-26T04:37:52;2.10;;;1.70;;
7843;SDS011;3967;48.702;9.326;2024-02-26T04:40:19;2.20;;;2.00;;
7843;SDS011;3967;48.702;9.326;2024-02-26T04:42:46;2.33;;;1.90;;
7843;SDS011;3967;48.702;9.326;2024-02-26T04:45:12;2.30;;;2.10;;
7843;SDS011;3967;48.702;9.326;2024-02-26T04:47:39;1.90;;;1.70;;
7843;SDS011;3967;48.702;9.326;2024-02-26T04:50:06;3.57;;;1.83;;
7843;SDS011;3967;48.702;9.326;2024-02-26T04:52:33;2.00;;;1.80;;
7843;SDS011;3967;48.702;9.326;2024-02-26T04:55:00;2.00;;;1.60;;
7843;SDS011;3967;48.702;9.326;2024-02-26T04:57:27;2.30;;;1.87;;
7843;SDS011;3967;48.702;9.326;2024-02-26T04:59:53;2.57;;;1.80;;
7843;SDS011;3967;48.702;9.326;2024-02-26T05:02:20;2.27;;;1.73;;
7843;SDS011;3967;48.702;9.326;2024-02-26T05:04:47;2.53;;;1.77;;
7843;SDS011;3967;48.702;9.326;2024-02-26T05:07:14;2.40;;;1.80;;
7843;SDS011;3967;48.702;9.326;2024-02-26T05:09:43;3.20;;;1.60;;
7843;SDS011;3967;48.702;9.326;2024-02-26T05:12:10;2.63;;;2.17;;
7843;SDS011;3967;48.702;9.326;2024-02-26T05:14:37;3.27;;;1.77;;
7843;SDS011;3967;48.702;9.326;2024-02-26T05:17:04;3.60;;;2.10;;
7843;SDS011;3967;48.702;9.326;2024-02-26T05:19:32;1.70;;;1.60;;
7843;SDS011;3967;48.702;9.326;2024-02-26T05:21:59;1.50;;;1.40;;
7843;SDS011;3967;48.702;9.326;2024-02-26T05:24:25;2.73;;;1.80;;
7843;SDS011;3967;48.702;9.326;2024-02-26T05:26:53;1.90;;;1.70;;
7843;SDS011;3967;48.702;9.326;2024-02-26T05:29:20;1.70;;;1.60;;
7843;SDS011;3967;48.702;9.326;2024-02-26T05:31:47;2.70;;;1.73;;
7843;SDS011;3967;48.702;9.326;2024-02-26T05:34:14;2.90;;;2.00;;
7843;SDS011;3967;48.702;9.326;2024-02-26T05:36:41;1.50;;;1.30;;
7843;SDS011;3967;48.702;9.326;2024-02-26T05:39:07;1.80;;;1.70;;
7843;SDS011;3967;48.702;9.326;2024-02-26T05:41:42;2.73;;;1.80;;
7843;SDS011;3967;48.702;9.326;2024-02-26T05:44:10;2.20;;;1.63;;
7843;SDS011;3967;48.702;9.326;2024-02-26T05:46:37;1.87;;;1.67;;
7843;SDS011;3967;48.702;9.326;2024-02-26T05:49:04;1.60;;;1.50;;
7843;SDS011;3967;48.702;9.326;2024-02-26T05:51:31;2.17;;;1.80;;
7843;SDS011;3967;48.702;9.326;2024-02-26T05:53:58;1.73;;;1.60;;
7843;SDS011;3967;48.702;9.326;2024-02-26T05:56:25;2.20;;;1.77;;
7843;SDS011;3967;48.702;9.326;2024-02-26T05:58:51;1.53;;;1.33;;
7843;SDS011;3967;48.702;9.326;2024-02-26T06:01:19;1.97;;;1.80;;
7843;SDS011;3967;48.702;9.326;2024-02-26T06:03:46;2.57;;;1.80;;
7843;SDS011;3967;48.702;9.326;2024-02-26T06:06:13;3.27;;;1.90;;
7843;SDS011;3967;48.702;9.326;2024-02-26T06:08:44;3.27;;;1.80;;
7843;SDS011;3967;48.702;9.326;2024-02-26T06:11:10;2.10;;;1.60;;
7843;SDS011;3967;48.702;9.326;2024-02-26T06:13:37;5.20;;;1.97;;
7843;SDS011;3967;48.702;9.326;2024-02-26T06:16:04;4.07;;;2.57;;
7843;SDS011;3967;48.702;9.326;2024-02-26T06:18:34;1.67;;;1.57;;
7843;SDS011;3967;48.702;9.326;2024-02-26T06:21:01;2.90;;;2.00;;
7843;SDS011;3967;48.702;9.326;2024-02-26T06:23:28;2.10;;;1.90;;
7843;SDS011;3967;48.702;9.326;2024-02-26T06:25:55;1.87;;;1.77;;
7843;SDS011;3967;48.702;9.326;2024-02-26T06:28:22;2.17;;;1.93;;
7843;SDS011;3967;48.702;9.326;2024-02-26T06:30:48;3.97;;;1.87;;
7843;SDS011;3967;48.702;9.326;2024-02-26T06:33:16;4.63;;;1.80;;
7843;SDS011;3967;48.702;9.326;2024-02-26T06:35:43;2.07;;;1.97;;
7843;SDS011;3967;48.702;9.326;2024-02-26T06:38:10;2.13;;;1.80;;
7843;SDS011;3967;48.702;9.326;2024-02-26T06:40:39;4.47;;;1.70;;
7843;SDS011;3967;48.702;9.326;2024-02-26T06:43:06;2.03;;;1.90;;
7843;SDS011;3967;48.702;9.326;2024-02-26T06:45:32;2.30;;;2.00;;
7843;SDS011;3967;48.702;9.326;2024-02-26T06:47:59;2.83;;;1.80;;
7843;SDS011;3967;48.702;9.326;2024-02-26T06:50:27;3.13;;;1.93;;
7843;SDS011;3967;48.702;9.326;2024-02-26T06:52:54;1.97;;;1.77;;
7843;SDS011;3967;48.702;9.326;2024-02-26T06:55:20;1.93;;;1.80;;
7843;SDS011;3967;48.702;9.326;2024-02-26T06:57:47;1.97;;;1.87;;
7843;SDS011;3967;48.702;9.326;2024-02-26T07:00:14;1.83;;;1.73;;
7843;SDS011;3967;48.702;9.326;2024-02-26T07:02:43;2.43;;;2.03;;
7843;SDS011;3967;48.702;9.326;2024-02-26T07:05:10;2.20;;;2.00;;
7843;SDS011;3967;48.702;9.326;2024-02-26T07:07:37;2.10;;;1.90;;
7843;SDS011;3967;48.702;9.326;2024-02-26T07:10:04;5.20;;;2.23;;
7843;SDS011;3967;48.702;9.326;2024-02-26T07:12:32;2.83;;;2.03;;
7843;SDS011;3967;48.702;9.326;2024-02-26T07:14:59;2.93;;;1.90;;
7843;SDS011;3967;48.702;9.326;2024-02-26T07:17:27;3.60;;;2.20;;
7843;SDS011;3967;48.702;9.326;2024-02-26T07:19:53;3.00;;;2.30;;
7843;SDS011;3967;48.702;9.326;2024-02-26T07:22:20;4.57;;;3.40;;
7843;SDS011;3967;48.702;9.326;2024-02-26T07:24:47;7.27;;;3.47;;
7843;SDS011;3967;48.702;9.326;2024-02-26T07:27:14;3.60;;;2.90;;
7843;SDS011;3967;48.702;9.326;2024-02-26T07:29:43;3.70;;;3.40;;
7843;SDS011;3967;48.702;9.326;2024-02-26T07:32:10;3.43;;;3.13;;
7843;SDS011;3967;48.702;9.326;2024-02-26T07:34:37;3.67;;;3.10;;
7843;SDS011;3967;48.702;9.326;2024-02-26T07:37:08;4.07;;;3.47;;
7843;SDS011;3967;48.702;9.326;2024-02-26T07:39:35;5.03;;;3.87;;
7843;SDS011;3967;48.702;9.326;2024-02-26T07:42:03;7.13;;;4.33;;
7843;SDS011;3967;48.702;9.326;2024-02-26T07:44:30;4.63;;;3.90;;
7843;SDS011;3967;48.702;9.326;2024-02-26T07:46:56;5.63;;;3.80;;
7843;SDS011;3967;48.702;9.326;2024-02-26T07:49:23;5.43;;;3.50;;
7843;SDS011;3967;48.702;9.326;2024-02-26T07:51:50;3.83;;;3.37;;
7843;SDS011;3967;48.702;9.326;2024-02-26T07:54:17;4.37;;;2.30;;
7843;SDS011;3967;48.702;9.326;2024-02-26T07:56:45;2.93;;;2.50;;
7843;SDS011;3967;48.702;9.326;2024-02-26T07:59:12;3.57;;;2.23;;
7843;SDS011;3967;48.702;9.326;2024-02-26T08:01:40;2.47;;;2.23;;
7843;SDS011;3967;48.702;9.326;2024-02-26T08:04:08;3.57;;;2.57;;
7843;SDS011;3967;48.702;9.326;2024-02-26T08:06:35;3.53;;;2.40;;
7843;SDS011;3967;48.702;9.326;2024-02-26T08:09:04;2.47;;;2.27;;
7843;SDS011;3967;48.702;9.326;2024-02-26T08:11:31;2.90;;;2.60;;
7843;SDS011;3967;48.702;9.326;2024-02-26T08:13:58;2.97;;;2.30;;
7843;SDS011;3967;48.702;9.326;2024-02-26T08:16:25;3.53;;;2.80;;
7843;SDS011;3967;48.702;9.326;2024-02-26T08:18:53;2.97;;;2.50;;
7843;SDS011;3967;48.702;9.326;2024-02-26T08:21:20;3.13;;;2.43;;
7843;SDS011;3967;48.702;9.326;2024-02-26T08:23:47;3.43;;;2.70;;
7843;SDS011;3967;48.702;9.326;2024-02-26T08:26:14;4.33;;;2.97;;
7843;SDS011;3967;48.702;9.326;2024-02-26T08:28:41;4.63;;;3.73;;
7843;SDS011;3967;48.702;9.326;2024-02-26T08:31:07;4.03;;;2.83;;
7843;SDS011;3967;48.702;9.326;2024-02-26T08:33:34;3.63;;;2.80;;
7843;SDS011;3967;48.702;9.326;2024-02-26T08:36:05;4.17;;;3.10;;
7843;SDS011;3967;48.702;9.326;2024-02-26T08:38:32;3.03;;;2.50;;
7843;SDS011;3967;48.702;9.326;2024-02-26T08:41:04;2.63;;;2.27;;
7843;SDS011;3967;48.702;9.326;2024-02-26T08:43:31;5.17;;;2.60;;
7843;SDS011;3967;48.702;9.326;2024-02-26T08:45:58;4.27;;;3.00;;
7843;SDS011;3967;48.702;9.326;2024-02-26T08:48:24;6.57;;;3.30;;
7843;SDS011;3967;48.702;9.326;2024-02-26T08:50:51;4.67;;;3.23;;
7843;SDS011;3967;48.702;9.326;2024-02-26T08:53:18;6.00;;;2.97;;
7843;SDS011;3967;48.702;9.326;2024-02-26T08:55:56;6.00;;;3.80;;
7843;SDS011;3967;48.702;9.326;2024-02-26T08:58:23;8.50;;;3.30;;
7843;SDS011;3967;48.702;9.326;2024-02-26T09:00:50;4.27;;;3.23;;
7843;SDS011;3967;48.702;9.326;2024-02-26T09:03:17;4.10;;;3.20;;
7843;SDS011;3967;48.702;9.326;2024-02-26T09:05:44;4.90;;;3.17;;
7843;SDS011;3967;48.702;9.326;2024-02-26T09:08:11;5.40;;;2.77;;
7843;SDS011;3967;48.702;9.326;2024-02-26T09:10:38;4.57;;;2.97;;
7843;SDS011;3967;48.702;9.326;2024-02-26T09:13:05;6.00;;;3.00;;
7843;SDS011;3967;48.702;9.326;2024-02-26T09:15:32;7.30;;;2.93;;
7843;SDS011;3967;48.702;9.326;2024-02-26T09:17:59;3.87;;;2.70;;
7843;SDS011;3967;48.702;9.326;2024-02-26T09:20:26;3.20;;;2.60;;
7843;SDS011;3967;48.702;9.326;2024-02-26T09:22:53;3.80;;;2.30;;
7843;SDS011;3967;48.702;9.326;2024-02-26T09:25:20;4.40;;;2.50;;
7843;SDS011;3967;48.702;9.326;2024-02-26T09:27:46;3.90;;;2.60;;
7843;SDS011;3967;48.702;9.326;2024-02-26T09:30:14;3.57;;;2.50;;
7843;SDS011;3967;48.702;9.326;2024-02-26T09:32:41;4.63;;;2.40;;
7843;SDS011;3967;48.702;9.326;2024-02-26T09:35:11;3.23;;;2.40;;
7843;SDS011;3967;48.702;9.326;2024-02-26T09:37:39;3.27;;;2.67;;
7843;SDS011;3967;48.702;9.326;2024-02-26T09:40:06;3.00;;;2.20;;
7843;SDS011;3967;48.702;9.326;2024-02-26T09:42:33;2.60;;;2.23;;
7843;SDS011;3967;48.702;9.326;2024-02-26T09:45:03;4.10;;;2.63;;
7843;SDS011;3967;48.702;9.326;2024-02-26T09:47:35;2.50;;;2.30;;
7843;SDS011;3967;48.702;9.326;2024-02-26T09:50:05;2.97;;;2.27;;
7843;SDS011;3967;48.702;9.326;2024-02-26T09:52:35;3.10;;;2.50;;
7843;SDS011;3967;48.702;9.326;2024-02-26T09:55:04;3.57;;;2.40;;
7843;SDS011;3967;48.702;9.326;2024-02-26T09:57:34;3.77;;;2.40;;
7843;SDS011;3967;48.702;9.326;2024-02-26T10:00:03;4.23;;;2.50;;
7843;SDS011;3967;48.702;9.326;2024-02-26T10:02:32;4.60;;;3.03;;
7843;SDS011;3967;48.702;9.326;2024-02-26T10:04:59;5.67;;;2.80;;
7843;SDS011;3967;48.702;9.326;2024-02-26T10:07:32;2.97;;;2.43;;
7843;SDS011;3967;48.702;9.326;2024-02-26T10:09:59;3.13;;;2.77;;
7843;SDS011;3967;48.702;9.326;2024-02-26T10:12:26;5.17;;;3.27;;
7843;SDS011;3967;48.702;9.326;2024-02-26T10:14:55;2.93;;;2.60;;
7843;SDS011;3967;48.702;9.326;2024-02-26T10:17:22;2.50;;;2.30;;
7843;SDS011;3967;48.702;9.326;2024-02-26T10:19:49;2.83;;;2.30;;
7843;SDS011;3967;48.702;9.326;2024-02-26T10:22:18;2.63;;;2.40;;
7843;SDS011;3967;48.702;9.326;2024-02-26T10:24:46;2.13;;;2.00;;
7843;SDS011;3967;48.702;9.326;2024-02-26T10:27:13;3.27;;;2.73;;
7843;SDS011;3967;48.702;9.326;2024-02-26T10:29:41;3.43;;;2.27;;
7843;SDS011;3967;48.702;9.326;2024-02-26T10:32:09;3.30;;;2.40;;
7843;SDS011;3967;48.702;9.326;2024-02-26T10:34:37;3.57;;;2.07;;
7843;SDS011;3967;48.702;9.326;2024-02-26T10:37:07;4.37;;;2.17;;
7843;SDS011;3967;48.702;9.326;2024-02-26T10:39:36;2.23;;;1.53;;
7843;SDS011;3967;48.702;9.326;2024-02-26T10:42:04;2.10;;;1.90;;
7843;SDS011;3967;48.702;9.326;2024-02-26T10:44:36;4.00;;;1.93;;
7843;SDS011;3967;48.702;9.326;2024-02-26T10:47:03;5.20;;;1.93;;
7843;SDS011;3967;48.702;9.326;2024-02-26T10:49:30;2.07;;;1.73;;
7843;SDS011;3967;48.702;9.326;2024-02-26T10:51:57;1.70;;;1.37;;
7843;SDS011;3967;48.702;9.326;2024-02-26T10:54:26;3.17;;;1.70;;
7843;SDS011;3967;48.702;9.326;2024-02-26T10:56:56;2.53;;;1.23;;
7843;SDS011;3967;48.702;9.326;2024-02-26T10:59:24;1.47;;;1.30;;
7843;SDS011;3967;48.702;9.326;2024-02-26T11:01:51;1.77;;;1.40;;
7843;SDS011;3967;48.702;9.326;2024-02-26T11:04:18;1.00;;;1.00;;
7843;SDS011;3967;48.702;9.326;2024-02-26T11:06:48;1.70;;;1.40;;
7843;SDS011;3967;48.702;9.326;2024-02-26T11:09:16;2.80;;;1.43;;
7843;SDS011;3967;48.702;9.326;2024-02-26T11:11:45;1.53;;;1.43;;
7843;SDS011;3967;48.702;9.326;2024-02-26T11:14:14;3.57;;;1.47;;
7843;SDS011;3967;48.702;9.326;2024-02-26T11:16:42;1.33;;;1.03;;
7843;SDS011;3967;48.702;9.326;2024-02-26T11:19:10;0.63;;;0.63;;
7843;SDS011;3967;48.702;9.326;2024-02-26T11:21:40;1.33;;;1.00;;
7843;SDS011;3967;48.702;9.326;2024-02-26T11:24:09;2.50;;;0.80;;
7843;SDS011;3967;48.702;9.326;2024-02-26T11:26:43;2.17;;;0.83;;
7843;SDS011;3967;48.702;9.326;2024-02-26T11:29:17;1.43;;;0.80;;
7843;SDS011;3967;48.702;9.326;2024-02-26T11:31:47;3.40;;;0.90;;
7843;SDS011;3967;48.702;9.326;2024-02-26T11:34:14;2.00;;;0.63;;
7843;SDS011;3967;48.702;9.326;2024-02-26T11:36:43;1.20;;;0.80;;
7843;SDS011;3967;48.702;9.326;2024-02-26T11:39:11;4.13;;;1.00;;
7843;SDS011;3967;48.702;9.326;2024-02-26T11:41:43;1.00;;;0.80;;
7843;SDS011;3967;48.702;9.326;2024-02-26T11:44:10;1.63;;;0.80;;
7843;SDS011;3967;48.702;9.326;2024-02-26T11:46:40;1.03;;;1.00;;
7843;SDS011;3967;48.702;9.326;2024-02-26T11:51:54;1.10;;;0.97;;
7843;SDS011;3967;48.702;9.326;2024-02-26T11:59:49;4.03;;;1.37;;
7843;SDS011;3967;48.702;9.326;2024-02-26T12:05:10;0.70;;;0.70;;
7843;SDS011;3967;48.702;9.326;2024-02-26T12:07:40;1.47;;;1.20;;
7843;SDS011;3967;48.702;9.326;2024-02-26T12:10:15;3.20;;;1.10;;
7843;SDS011;3967;48.702;9.326;2024-02-26T12:15:32;0.73;;;0.70;;
7843;SDS011;3967;48.702;9.326;2024-02-26T12:18:02;2.47;;;0.67;;
7843;SDS011;3967;48.702;9.326;2024-02-26T12:20:34;0.77;;;0.77;;
7843;SDS011;3967;48.702;9.326;2024-02-26T12:23:02;1.00;;;0.67;;
7843;SDS011;3967;48.702;9.326;2024-02-26T12:25:30;2.87;;;0.80;;
7843;SDS011;3967;48.702;9.326;2024-02-26T12:27:59;0.70;;;0.70;;
7843;SDS011;3967;48.702;9.326;2024-02-26T12:30:26;0.77;;;0.67;;
7843;SDS011;3967;48.702;9.326;2024-02-26T12:32:56;0.87;;;0.40;;
7843;SDS011;3967;48.702;9.326;2024-02-26T12:35:24;0.50;;;0.50;;
7843;SDS011;3967;48.702;9.326;2024-02-26T12:37:51;1.03;;;0.73;;
7843;SDS011;3967;48.702;9.326;2024-02-26T12:40:20;1.37;;;0.73;;
7843;SDS011;3967;48.702;9.326;2024-02-26T12:42:47;1.10;;;0.80;;
7843;SDS011;3967;48.702;9.326;2024-02-26T12:45:14;2.50;;;0.70;;
7843;SDS011;3967;48.702;9.326;2024-02-26T12:47:43;1.10;;;0.80;;
7843;SDS011;3967;48.702;9.326;2024-02-26T12:50:15;0.80;;;0.50;;
7843;SDS011;3967;48.702;9.326;2024-02-26T12:52:46;0.60;;;0.60;;
7843;SDS011;3967;48.702;9.326;2024-02-26T12:55:15;1.17;;;0.70;;
7843;SDS011;3967;48.702;9.326;2024-02-26T12:57:46;0.70;;;0.70;;
7843;SDS011;3967;48.702;9.326;2024-02-26T13:00:16;0.50;;;0.50;;
7843;SDS011;3967;48.702;9.326;2024-02-26T13:02:46;0.30;;;0.30;;
7843;SDS011;3967;48.702;9.326;2024-02-26T13:05:15;0.50;;;0.50;;
7843;SDS011;3967;48.702;9.326;2024-02-26T13:07:43;2.20;;;0.30;;
7843;SDS011;3967;48.702;9.326;2024-02-26T13:10:13;1.53;;;0.40;;
7843;SDS011;3967;48.702;9.326;2024-02-26T13:12:44;0.70;;;0.70;;
7843;SDS011;3967;48.702;9.326;2024-02-26T13:15:15;0.50;;;0.40;;
7843;SDS011;3967;48.702;9.326;2024-02-26T13:17:44;0.40;;;0.40;;
7843;SDS011;3967;48.702;9.326;2024-02-26T13:20:11;0.80;;;0.50;;
7843;SDS011;3967;48.702;9.326;2024-02-26T13:22:39;1.23;;;0.30;;
7843;SDS011;3967;48.702;9.326;2024-02-26T13:25:06;0.80;;;0.50;;
7843;SDS011;3967;48.702;9.326;2024-02-26T13:27:34;4.13;;;0.83;;
7843;SDS011;3967;48.702;9.326;2024-02-26T13:30:04;0.47;;;0.30;;
7843;SDS011;3967;48.702;9.326;2024-02-26T13:32:39;0.60;;;0.60;;
7843;SDS011;3967;48.702;9.326;2024-02-26T13:35:07;0.80;;;0.40;;
7843;SDS011;3967;48.702;9.326;2024-02-26T13:37:36;0.40;;;0.40;;
7843;SDS011;3967;48.702;9.326;2024-02-26T13:40:09;0.20;;;0.20;;
7843;SDS011;3967;48.702;9.326;2024-02-26T13:42:37;1.33;;;0.30;;
7843;SDS011;3967;48.702;9.326;2024-02-26T13:45:05;0.50;;;0.50;;
7843;SDS011;3967;48.702;9.326;2024-02-26T13:47:35;1.03;;;0.60;;
7843;SDS011;3967;48.702;9.326;2024-02-26T13:50:02;1.07;;;0.63;;
7843;SDS011;3967;48.702;9.326;2024-02-26T13:52:29;0.60;;;0.60;;
7843;SDS011;3967;48.702;9.326;2024-02-26T13:54:58;1.40;;;0.70;;
7843;SDS011;3967;48.702;9.326;2024-02-26T13:57:25;3.00;;;0.60;;
7843;SDS011;3967;48.702;9.326;2024-02-26T13:59:53;1.07;;;0.47;;
7843;SDS011;3967;48.702;9.326;2024-02-26T14:02:20;0.60;;;0.60;;
7843;SDS011;3967;48.702;9.326;2024-02-26T14:04:47;0.60;;;0.60;;
7843;SDS011;3967;48.702;9.326;2024-02-26T14:07:14;0.73;;;0.60;;
7843;SDS011;3967;48.702;9.326;2024-02-26T14:09:43;0.70;;;0.63;;
7843;SDS011;3967;48.702;9.326;2024-02-26T14:12:15;0.73;;;0.60;;
7843;SDS011;3967;48.702;9.326;2024-02-26T14:14:47;1.30;;;0.83;;
7843;SDS011;3967;48.702;9.326;2024-02-26T14:17:15;0.93;;;0.70;;
7843;SDS011;3967;48.702;9.326;2024-02-26T14:19:42;0.90;;;0.90;;
7843;SDS011;3967;48.702;9.326;2024-02-26T14:22:13;1.00;;;0.90;;
7843;SDS011;3967;48.702;9.326;2024-02-26T14:24:43;1.40;;;0.90;;
7843;SDS011;3967;48.702;9.326;2024-02-26T14:27:13;0.80;;;0.80;;
7843;SDS011;3967;48.702;9.326;2024-02-26T14:29:43;0.87;;;0.80;;
7843;SDS011;3967;48.702;9.326;2024-02-26T14:32:10;1.50;;;0.90;;
7843;SDS011;3967;48.702;9.326;2024-02-26T14:34:37;0.80;;;0.60;;
7843;SDS011;3967;48.702;9.326;2024-02-26T14:37:04;1.30;;;0.80;;
7843;SDS011;3967;48.702;9.326;2024-02-26T14:39:31;1.20;;;0.70;;
7843;SDS011;3967;48.702;9.326;2024-02-26T14:41:59;0.93;;;0.63;;
7843;SDS011;3967;48.702;9.326;2024-02-26T14:44:26;1.37;;;0.93;;
7843;SDS011;3967;48.702;9.326;2024-02-26T14:46:53;1.77;;;0.70;;
7843;SDS011;3967;48.702;9.326;2024-02-26T14:49:20;2.03;;;0.77;;
7843;SDS011;3967;48.702;9.326;2024-02-26T14:51:47;0.70;;;0.60;;
7843;SDS011;3967;48.702;9.326;2024-02-26T14:54:14;3.53;;;1.00;;
7843;SDS011;3967;48.702;9.326;2024-02-26T14:56:41;1.23;;;0.77;;
7843;SDS011;3967;48.702;9.326;2024-02-26T14:59:08;0.70;;;0.70;;
7843;SDS011;3967;48.702;9.326;2024-02-26T15:01:34;0.60;;;0.60;;
7843;SDS011;3967;48.702;9.326;2024-02-26T15:04:02;0.73;;;0.60;;
7843;SDS011;3967;48.702;9.326;2024-02-26T15:06:30;0.63;;;0.63;;
7843;SDS011;3967;48.702;9.326;2024-02-26T15:08:57;0.70;;;0.50;;
7843;SDS011;3967;48.702;9.326;2024-02-26T15:11:23;0.67;;;0.67;;
7843;SDS011;3967;48.702;9.326;2024-02-26T15:13:50;0.50;;;0.50;;
7843;SDS011;3967;48.702;9.326;2024-02-26T15:16:18;0.60;;;0.60;;
7843;SDS011;3967;48.702;9.326;2024-02-26T15:18:47;0.87;;;0.57;;
7843;SDS011;3967;48.702;9.326;2024-02-26T15:21:14;1.33;;;0.50;;
7843;SDS011;3967;48.702;9.326;2024-02-26T15:23:44;0.67;;;0.57;;
7843;SDS011;3967;48.702;9.326;2024-02-26T15:26:29;0.70;;;0.70;;
7843;SDS011;3967;48.702;9.326;2024-02-26T15:28:56;0.90;;;0.80;;
7843;SDS011;3967;48.702;9.326;2024-02-26T15:31:23;2.70;;;0.90;;